Meteorológiai információk azoknak akik tudják olvasni.

METAR = LHBP 242030Z 06006KT CAVOK 26/19 Q1020 NOSIG

9 órás TAF = TAF TAF LHBP 242330Z 2423/2424 30008KT CAVOK BECMG 2506/2509 24010KT OVC030 TEMPO 2509/2515 24015G25KT 8000 -RA BKN013 OVC025 BECMG 2515/2518 30008KT CAVOK

24 órás TAF = TAF TAF LHBP 241715Z 2418/2518 07007KT CAVOK PROB30 TEMPO 2418/2504 VRB15G25KT -TSRA FEW040CB SCT080 TEMPO 2513/2518 VRB15G25KT 4000 TSRA SCT040CB SCT060

ÁLLOMÁS.................... LHBP
ÉSZLELÉS................... Sat Aug 24, 22:30 CEST
MOST....................... Sat Aug 24, 22:59 CEST
IDŐ........................ 29 perccel ezelőtt
SZÉL....................... KÉK irányból 6 csomó
LÁTÁSTÁVOLSÁG.............. 10 km vagy több
FELHŐZET................... jelentős felhőzet nincs
HŐMÉRSÉKLET................ 79°F (26°C)
HARMATPONT................. 66°F (19°C)
PÁRATARTALOM............... 65%
LÉGNYOMÁS.................. 1020 hPa (30.12 in Hg)

További információ LHBP állomásról

Meteor információ kérése:        állomásról.    

 

www.tothgeza.hu

 

English version
Copyright © 2003-2019 Tóth Géza Minden jog fenntartva.